sensor_id;sensor_type;location;lat;lon;timestamp;pressure;altitude;pressure_sealevel;temperature;humidity
1480;BME280;732;51.698;4.886;2023-03-31T00:01:09;100460.63;;;8.12;73.83
1480;BME280;732;51.698;4.886;2023-03-31T00:03:38;100446.06;;;8.14;73.86
1480;BME280;732;51.698;4.886;2023-03-31T00:06:12;100362.47;;;7.74;73.70
1480;BME280;732;51.698;4.886;2023-03-31T00:08:45;100416.34;;;8.18;73.43
1480;BME280;732;51.698;4.886;2023-03-31T00:11:18;100376.50;;;7.76;74.20
1480;BME280;732;51.698;4.886;2023-03-31T00:13:47;100411.56;;;8.05;74.35
1480;BME280;732;51.698;4.886;2023-03-31T00:16:17;100424.06;;;8.12;74.39
1480;BME280;732;51.698;4.886;2023-03-31T00:18:46;100385.72;;;7.97;74.68
1480;BME280;732;51.698;4.886;2023-03-31T00:21:19;100377.91;;;7.87;75.14
1480;BME280;732;51.698;4.886;2023-03-31T00:24:02;100376.75;;;7.58;76.53
1480;BME280;732;51.698;4.886;2023-03-31T00:26:31;100395.13;;;7.85;76.02
1480;BME280;732;51.698;4.886;2023-03-31T00:29:00;100386.69;;;7.73;76.62
1480;BME280;732;51.698;4.886;2023-03-31T00:31:31;100385.66;;;7.74;76.78
1480;BME280;732;51.698;4.886;2023-03-31T00:33:59;100352.38;;;7.61;76.24
1480;BME280;732;51.698;4.886;2023-03-31T00:36:28;100356.94;;;7.53;77.08
1480;BME280;732;51.698;4.886;2023-03-31T00:38:59;100372.44;;;7.80;76.87
1480;BME280;732;51.698;4.886;2023-03-31T00:41:30;100360.00;;;7.73;76.58
1480;BME280;732;51.698;4.886;2023-03-31T00:44:07;100342.03;;;7.58;76.84
1480;BME280;732;51.698;4.886;2023-03-31T00:46:43;100339.66;;;7.63;76.98
1480;BME280;732;51.698;4.886;2023-03-31T00:49:18;100363.47;;;7.73;77.43
1480;BME280;732;51.698;4.886;2023-03-31T00:51:50;100356.84;;;7.69;77.74
1480;BME280;732;51.698;4.886;2023-03-31T00:54:21;100352.97;;;7.72;77.64
1480;BME280;732;51.698;4.886;2023-03-31T00:56:54;100347.16;;;7.68;77.97
1480;BME280;732;51.698;4.886;2023-03-31T00:59:27;100293.25;;;7.41;78.01
1480;BME280;732;51.698;4.886;2023-03-31T01:01:59;100308.16;;;7.59;77.62
1480;BME280;732;51.698;4.886;2023-03-31T01:04:36;100327.88;;;7.81;77.60
1480;BME280;732;51.698;4.886;2023-03-31T01:07:10;100329.25;;;7.77;77.65
1480;BME280;732;51.698;4.886;2023-03-31T01:09:43;100323.00;;;7.61;78.62
1480;BME280;732;51.698;4.886;2023-03-31T01:12:16;100317.88;;;7.52;79.01
1480;BME280;732;51.698;4.886;2023-03-31T01:14:45;100281.84;;;7.47;78.63
1480;BME280;732;51.698;4.886;2023-03-31T01:17:18;100274.91;;;7.38;79.05
1480;BME280;732;51.698;4.886;2023-03-31T01:20:00;100297.66;;;7.57;79.05
1480;BME280;732;51.698;4.886;2023-03-31T01:23:07;100261.22;;;7.10;80.25
1480;BME280;732;51.698;4.886;2023-03-31T01:26:22;100287.00;;;7.26;80.74
1480;BME280;732;51.698;4.886;2023-03-31T01:29:06;100252.00;;;7.21;80.56
1480;BME280;732;51.698;4.886;2023-03-31T01:32:02;100259.00;;;7.22;80.92
1480;BME280;732;51.698;4.886;2023-03-31T01:35:01;100268.44;;;7.32;81.01
1480;BME280;732;51.698;4.886;2023-03-31T01:38:23;100254.78;;;7.27;81.40
1480;BME280;732;51.698;4.886;2023-03-31T01:41:21;100234.00;;;7.23;81.14
1480;BME280;732;51.698;4.886;2023-03-31T01:44:04;100246.31;;;7.24;82.00
1480;BME280;732;51.698;4.886;2023-03-31T01:46:40;100252.19;;;7.19;82.13
1480;BME280;732;51.698;4.886;2023-03-31T01:49:20;100241.63;;;7.26;82.18
1480;BME280;732;51.698;4.886;2023-03-31T01:51:58;100192.34;;;7.13;81.39
1480;BME280;732;51.698;4.886;2023-03-31T01:54:36;100222.44;;;7.30;82.05
1480;BME280;732;51.698;4.886;2023-03-31T01:57:13;100214.13;;;7.25;82.55
1480;BME280;732;51.698;4.886;2023-03-31T01:59:57;100212.09;;;7.27;82.56
1480;BME280;732;51.698;4.886;2023-03-31T02:02:42;100158.66;;;7.12;82.41
1480;BME280;732;51.698;4.886;2023-03-31T02:05:16;100195.19;;;7.35;82.51
1480;BME280;732;51.698;4.886;2023-03-31T02:07:49;100192.66;;;7.19;83.26
1480;BME280;732;51.698;4.886;2023-03-31T02:10:21;100185.31;;;7.21;82.95
1480;BME280;732;51.698;4.886;2023-03-31T02:12:53;100173.63;;;7.22;83.01
1480;BME280;732;51.698;4.886;2023-03-31T02:15:28;100162.06;;;7.29;82.55
1480;BME280;732;51.698;4.886;2023-03-31T02:18:00;100160.13;;;7.46;82.02
1480;BME280;732;51.698;4.886;2023-03-31T02:20:32;100157.44;;;7.46;82.10
1480;BME280;732;51.698;4.886;2023-03-31T02:23:01;100148.06;;;7.51;81.77
1480;BME280;732;51.698;4.886;2023-03-31T02:25:34;100105.19;;;7.29;81.79
1480;BME280;732;51.698;4.886;2023-03-31T02:28:09;100120.84;;;7.55;81.83
1480;BME280;732;51.698;4.886;2023-03-31T02:30:47;100115.63;;;7.39;82.22
1480;BME280;732;51.698;4.886;2023-03-31T02:33:18;100102.69;;;7.27;82.46
1480;BME280;732;51.698;4.886;2023-03-31T02:35:47;100081.09;;;7.37;81.57
1480;BME280;732;51.698;4.886;2023-03-31T02:38:15;100086.91;;;7.41;81.89
1480;BME280;732;51.698;4.886;2023-03-31T02:40:44;100064.97;;;7.15;82.18
1480;BME280;732;51.698;4.886;2023-03-31T02:43:14;100068.63;;;7.38;81.92
1480;BME280;732;51.698;4.886;2023-03-31T02:45:45;100064.75;;;7.40;82.05
1480;BME280;732;51.698;4.886;2023-03-31T02:48:18;100046.13;;;7.32;81.78
1480;BME280;732;51.698;4.886;2023-03-31T02:51:43;100045.31;;;7.31;82.38
1480;BME280;732;51.698;4.886;2023-03-31T02:54:55;100037.16;;;7.48;81.59
1480;BME280;732;51.698;4.886;2023-03-31T02:58:23;100020.56;;;7.38;81.93
1480;BME280;732;51.698;4.886;2023-03-31T03:01:09;100025.91;;;7.38;81.96
1480;BME280;732;51.698;4.886;2023-03-31T03:03:49;100009.53;;;7.41;81.41
1480;BME280;732;51.698;4.886;2023-03-31T03:06:36;100005.38;;;7.38;81.97
1480;BME280;732;51.698;4.886;2023-03-31T03:09:29;99993.09;;;7.14;82.09
1480;BME280;732;51.698;4.886;2023-03-31T03:12:10;99965.22;;;7.02;82.48
1480;BME280;732;51.698;4.886;2023-03-31T03:14:47;99981.38;;;7.38;81.59
1480;BME280;732;51.698;4.886;2023-03-31T03:17:22;99981.00;;;7.56;81.15
1480;BME280;732;51.698;4.886;2023-03-31T03:19:54;99952.94;;;7.45;80.77
1480;BME280;732;51.698;4.886;2023-03-31T03:22:24;99968.09;;;7.60;80.45
1480;BME280;732;51.698;4.886;2023-03-31T03:24:52;99936.00;;;7.38;80.75
1480;BME280;732;51.698;4.886;2023-03-31T03:27:21;99949.16;;;7.55;80.66
1480;BME280;732;51.698;4.886;2023-03-31T03:29:51;99944.66;;;7.55;80.48
1480;BME280;732;51.698;4.886;2023-03-31T03:32:19;99884.56;;;7.14;80.53
1480;BME280;732;51.698;4.886;2023-03-31T03:34:48;99929.72;;;7.46;80.88
1480;BME280;732;51.698;4.886;2023-03-31T03:37:16;99900.66;;;7.21;81.36
1480;BME280;732;51.698;4.886;2023-03-31T03:39:45;99898.44;;;7.25;81.58
1480;BME280;732;51.698;4.886;2023-03-31T03:42:13;99905.38;;;7.34;81.34
1480;BME280;732;51.698;4.886;2023-03-31T03:44:42;99899.72;;;7.29;81.87
1480;BME280;732;51.698;4.886;2023-03-31T03:47:11;99890.63;;;7.08;82.48
1480;BME280;732;51.698;4.886;2023-03-31T03:49:40;99857.97;;;6.76;83.13
1480;BME280;732;51.698;4.886;2023-03-31T03:52:08;99880.69;;;7.02;82.89
1480;BME280;732;51.698;4.886;2023-03-31T03:54:36;99868.91;;;6.96;83.49
1480;BME280;732;51.698;4.886;2023-03-31T03:57:05;99872.31;;;7.05;82.81
1480;BME280;732;51.698;4.886;2023-03-31T03:59:34;99843.81;;;6.91;83.26
1480;BME280;732;51.698;4.886;2023-03-31T04:02:02;99858.25;;;6.96;83.21
1480;BME280;732;51.698;4.886;2023-03-31T04:04:32;99843.16;;;6.89;83.73
1480;BME280;732;51.698;4.886;2023-03-31T04:07:00;99839.28;;;6.61;84.24
1480;BME280;732;51.698;4.886;2023-03-31T04:09:29;99832.47;;;6.59;84.21
1480;BME280;732;51.698;4.886;2023-03-31T04:11:58;99846.19;;;6.56;84.57
1480;BME280;732;51.698;4.886;2023-03-31T04:14:26;99824.13;;;6.47;84.85
1480;BME280;732;51.698;4.886;2023-03-31T04:16:54;99802.06;;;6.53;84.03
1480;BME280;732;51.698;4.886;2023-03-31T04:19:24;99803.56;;;6.71;83.58
1480;BME280;732;51.698;4.886;2023-03-31T04:21:54;99813.03;;;6.88;83.38
1480;BME280;732;51.698;4.886;2023-03-31T04:24:29;99800.69;;;7.02;82.85
1480;BME280;732;51.698;4.886;2023-03-31T04:26:59;99789.56;;;6.98;82.66
1480;BME280;732;51.698;4.886;2023-03-31T04:29:29;99769.72;;;6.86;82.87
1480;BME280;732;51.698;4.886;2023-03-31T04:32:00;99783.13;;;6.93;82.55
1480;BME280;732;51.698;4.886;2023-03-31T04:34:29;99783.78;;;6.95;82.80
1480;BME280;732;51.698;4.886;2023-03-31T04:37:03;99688.66;;;6.20;83.24
1480;BME280;732;51.698;4.886;2023-03-31T04:39:32;99771.19;;;6.74;83.50
1480;BME280;732;51.698;4.886;2023-03-31T04:42:01;99752.16;;;6.77;83.40
1480;BME280;732;51.698;4.886;2023-03-31T04:44:29;99718.81;;;6.51;83.44
1480;BME280;732;51.698;4.886;2023-03-31T04:46:58;99731.84;;;6.61;83.42
1480;BME280;732;51.698;4.886;2023-03-31T04:49:29;99740.66;;;6.76;83.37
1480;BME280;732;51.698;4.886;2023-03-31T04:52:00;99732.88;;;6.60;83.56
1480;BME280;732;51.698;4.886;2023-03-31T04:54:29;99729.94;;;6.55;83.71
1480;BME280;732;51.698;4.886;2023-03-31T04:56:58;99724.88;;;6.60;83.72
1480;BME280;732;51.698;4.886;2023-03-31T04:59:26;99711.63;;;6.51;83.85
1480;BME280;732;51.698;4.886;2023-03-31T05:01:55;99703.56;;;6.45;84.00
1480;BME280;732;51.698;4.886;2023-03-31T05:04:23;99720.19;;;6.62;83.73
1480;BME280;732;51.698;4.886;2023-03-31T05:06:52;99711.16;;;6.63;83.46
1480;BME280;732;51.698;4.886;2023-03-31T05:09:21;99708.16;;;6.51;83.64
1480;BME280;732;51.698;4.886;2023-03-31T05:11:51;99687.91;;;6.42;83.95
1480;BME280;732;51.698;4.886;2023-03-31T05:14:19;99707.97;;;6.52;84.30
1480;BME280;732;51.698;4.886;2023-03-31T05:16:48;99674.72;;;6.48;83.44
1480;BME280;732;51.698;4.886;2023-03-31T05:19:16;99704.81;;;6.64;83.41
1480;BME280;732;51.698;4.886;2023-03-31T05:21:45;99693.44;;;6.55;83.35
1480;BME280;732;51.698;4.886;2023-03-31T05:24:13;99682.69;;;6.48;83.14
1480;BME280;732;51.698;4.886;2023-03-31T05:26:42;99695.75;;;6.58;83.52
1480;BME280;732;51.698;4.886;2023-03-31T05:29:17;99697.56;;;6.43;84.12
1480;BME280;732;51.698;4.886;2023-03-31T05:31:46;99646.66;;;6.08;84.01
1480;BME280;732;51.698;4.886;2023-03-31T05:34:15;99676.50;;;6.18;84.56
1480;BME280;732;51.698;4.886;2023-03-31T05:36:44;99695.53;;;6.30;84.44
1480;BME280;732;51.698;4.886;2023-03-31T05:39:16;99697.53;;;6.13;84.42
1480;BME280;732;51.698;4.886;2023-03-31T05:41:44;99692.78;;;6.23;84.23
1480;BME280;732;51.698;4.886;2023-03-31T05:44:14;99692.66;;;6.31;84.10
1480;BME280;732;51.698;4.886;2023-03-31T05:46:44;99684.31;;;6.19;84.44
1480;BME280;732;51.698;4.886;2023-03-31T05:49:13;99619.34;;;5.76;84.20
1480;BME280;732;51.698;4.886;2023-03-31T05:51:42;99670.44;;;6.24;84.31
1480;BME280;732;51.698;4.886;2023-03-31T05:54:11;99675.03;;;6.30;84.37
1480;BME280;732;51.698;4.886;2023-03-31T05:56:39;99664.13;;;6.40;83.59
1480;BME280;732;51.698;4.886;2023-03-31T05:59:08;99631.53;;;6.23;83.34
1480;BME280;732;51.698;4.886;2023-03-31T06:01:36;99670.56;;;6.46;83.36
1480;BME280;732;51.698;4.886;2023-03-31T06:04:06;99660.38;;;6.49;83.76
1480;BME280;732;51.698;4.886;2023-03-31T06:06:34;99662.72;;;6.74;83.14
1480;BME280;732;51.698;4.886;2023-03-31T06:09:05;99636.91;;;6.75;82.49
1480;BME280;732;51.698;4.886;2023-03-31T06:11:33;99617.72;;;6.64;81.94
1480;BME280;732;51.698;4.886;2023-03-31T06:14:02;99647.97;;;6.93;82.06
1480;BME280;732;51.698;4.886;2023-03-31T06:16:31;99645.63;;;7.05;81.57
1480;BME280;732;51.698;4.886;2023-03-31T06:18:59;99648.22;;;7.20;81.32
1480;BME280;732;51.698;4.886;2023-03-31T06:21:29;99620.50;;;7.14;80.91
1480;BME280;732;51.698;4.886;2023-03-31T06:23:58;99637.31;;;7.37;80.45
1480;BME280;732;51.698;4.886;2023-03-31T06:26:26;99606.06;;;7.30;80.21
1480;BME280;732;51.698;4.886;2023-03-31T06:28:55;99608.34;;;7.33;80.21
1480;BME280;732;51.698;4.886;2023-03-31T06:31:24;99605.78;;;7.47;80.27
1480;BME280;732;51.698;4.886;2023-03-31T06:33:53;99596.00;;;7.54;80.10
1480;BME280;732;51.698;4.886;2023-03-31T06:36:22;99540.81;;;7.33;79.68
1480;BME280;732;51.698;4.886;2023-03-31T06:38:53;99596.59;;;7.78;79.62
1480;BME280;732;51.698;4.886;2023-03-31T06:41:21;99530.59;;;7.37;79.31
1480;BME280;732;51.698;4.886;2023-03-31T06:43:50;99602.16;;;7.55;80.08
1480;BME280;732;51.698;4.886;2023-03-31T06:46:19;99622.00;;;7.24;81.09
1480;BME280;732;51.698;4.886;2023-03-31T06:48:47;99619.34;;;7.24;81.41
1480;BME280;732;51.698;4.886;2023-03-31T06:51:16;99604.34;;;7.44;80.93
1480;BME280;732;51.698;4.886;2023-03-31T06:53:45;99576.56;;;7.39;80.39
1480;BME280;732;51.698;4.886;2023-03-31T06:56:14;99589.47;;;7.63;80.78
1480;BME280;732;51.698;4.886;2023-03-31T06:58:43;99573.13;;;7.45;80.52
1480;BME280;732;51.698;4.886;2023-03-31T07:01:11;99574.97;;;7.44;80.65
1480;BME280;732;51.698;4.886;2023-03-31T07:03:40;99576.16;;;7.13;81.60
1480;BME280;732;51.698;4.886;2023-03-31T07:06:09;99579.09;;;6.97;82.82
1480;BME280;732;51.698;4.886;2023-03-31T07:08:37;99580.09;;;7.17;82.89
1480;BME280;732;51.698;4.886;2023-03-31T07:11:06;99562.00;;;7.13;82.62
1480;BME280;732;51.698;4.886;2023-03-31T07:13:36;99569.72;;;7.08;83.09
1480;BME280;732;51.698;4.886;2023-03-31T07:16:06;99554.25;;;6.96;83.32
1480;BME280;732;51.698;4.886;2023-03-31T07:18:36;99528.88;;;7.00;83.42
1480;BME280;732;51.698;4.886;2023-03-31T07:21:08;99562.91;;;7.48;83.28
1480;BME280;732;51.698;4.886;2023-03-31T07:23:37;99562.44;;;7.45;82.56
1480;BME280;732;51.698;4.886;2023-03-31T07:26:06;99571.56;;;7.57;83.23
1480;BME280;732;51.698;4.886;2023-03-31T07:28:36;99565.09;;;7.67;82.67
1480;BME280;732;51.698;4.886;2023-03-31T07:31:11;99508.94;;;7.25;82.50
1480;BME280;732;51.698;4.886;2023-03-31T07:33:39;99531.94;;;7.54;82.65
1480;BME280;732;51.698;4.886;2023-03-31T07:36:08;99560.78;;;7.72;81.83
1480;BME280;732;51.698;4.886;2023-03-31T07:38:41;99505.91;;;7.28;82.26
1480;BME280;732;51.698;4.886;2023-03-31T07:41:10;99557.78;;;7.54;82.59
1480;BME280;732;51.698;4.886;2023-03-31T07:43:40;99554.66;;;7.43;82.81
1480;BME280;732;51.698;4.886;2023-03-31T07:46:15;99522.28;;;7.25;82.41
1480;BME280;732;51.698;4.886;2023-03-31T07:48:45;99502.94;;;7.16;82.88
1480;BME280;732;51.698;4.886;2023-03-31T07:51:14;99528.19;;;7.48;82.95
1480;BME280;732;51.698;4.886;2023-03-31T07:53:44;99533.94;;;7.80;82.53
1480;BME280;732;51.698;4.886;2023-03-31T07:56:13;99546.63;;;7.72;82.21
1480;BME280;732;51.698;4.886;2023-03-31T07:58:44;99540.03;;;7.68;82.52
1480;BME280;732;51.698;4.886;2023-03-31T08:01:14;99519.53;;;7.75;81.85
1480;BME280;732;51.698;4.886;2023-03-31T08:03:46;99508.41;;;7.71;81.92
1480;BME280;732;51.698;4.886;2023-03-31T08:06:18;99510.56;;;7.89;81.64
1480;BME280;732;51.698;4.886;2023-03-31T08:08:46;99471.59;;;7.60;82.00
1480;BME280;732;51.698;4.886;2023-03-31T08:11:15;99529.91;;;7.91;81.58
1480;BME280;732;51.698;4.886;2023-03-31T08:13:45;99508.19;;;8.01;81.83
1480;BME280;732;51.698;4.886;2023-03-31T08:16:14;99524.69;;;8.11;81.16
1480;BME280;732;51.698;4.886;2023-03-31T08:18:42;99512.50;;;8.02;80.78
1480;BME280;732;51.698;4.886;2023-03-31T08:21:11;99448.84;;;7.64;80.89
1480;BME280;732;51.698;4.886;2023-03-31T08:23:39;99525.47;;;8.05;81.77
1480;BME280;732;51.698;4.886;2023-03-31T08:26:10;99482.63;;;7.85;81.39
1480;BME280;732;51.698;4.886;2023-03-31T08:28:45;99422.72;;;7.53;80.86
1480;BME280;732;51.698;4.886;2023-03-31T08:31:15;99506.91;;;8.39;81.10
1480;BME280;732;51.698;4.886;2023-03-31T08:33:45;99466.97;;;8.30;79.39
1480;BME280;732;51.698;4.886;2023-03-31T08:36:14;99506.53;;;8.62;78.88
1480;BME280;732;51.698;4.886;2023-03-31T08:38:43;99501.19;;;8.75;78.37
1480;BME280;732;51.698;4.886;2023-03-31T08:41:34;99506.78;;;8.94;79.05
1480;BME280;732;51.698;4.886;2023-03-31T08:44:10;99499.97;;;9.11;77.76
1480;BME280;732;51.698;4.886;2023-03-31T08:46:41;99428.97;;;8.82;76.58
1480;BME280;732;51.698;4.886;2023-03-31T08:49:14;99496.28;;;9.39;76.33
1480;BME280;732;51.698;4.886;2023-03-31T08:51:48;99499.56;;;9.21;75.00
1480;BME280;732;51.698;4.886;2023-03-31T08:54:24;99456.97;;;8.93;74.67
1480;BME280;732;51.698;4.886;2023-03-31T08:56:57;99489.88;;;9.27;75.69
1480;BME280;732;51.698;4.886;2023-03-31T08:59:30;99457.81;;;8.93;75.22
1480;BME280;732;51.698;4.886;2023-03-31T09:02:08;99474.28;;;8.84;75.43
1480;BME280;732;51.698;4.886;2023-03-31T09:05:14;99492.34;;;8.88;75.30
1480;BME280;732;51.698;4.886;2023-03-31T09:07:55;99494.84;;;8.90;74.96
1480;BME280;732;51.698;4.886;2023-03-31T09:10:37;99494.44;;;9.06;75.58
1480;BME280;732;51.698;4.886;2023-03-31T09:13:32;99442.78;;;8.72;75.40
1480;BME280;732;51.698;4.886;2023-03-31T09:16:12;99480.84;;;9.21;74.36
1480;BME280;732;51.698;4.886;2023-03-31T09:18:43;99494.00;;;9.43;74.19
1480;BME280;732;51.698;4.886;2023-03-31T09:21:20;99478.34;;;9.53;73.96
1480;BME280;732;51.698;4.886;2023-03-31T09:23:55;99468.22;;;9.62;72.42
1480;BME280;732;51.698;4.886;2023-03-31T09:26:33;99399.72;;;9.27;73.10
1480;BME280;732;51.698;4.886;2023-03-31T09:29:11;99472.72;;;9.75;72.06
1480;BME280;732;51.698;4.886;2023-03-31T09:31:46;99441.84;;;9.66;72.44
1480;BME280;732;51.698;4.886;2023-03-31T09:34:18;99409.50;;;9.61;70.47
1480;BME280;732;51.698;4.886;2023-03-31T09:36:51;99420.19;;;9.74;71.16
1480;BME280;732;51.698;4.886;2023-03-31T09:39:20;99462.19;;;9.87;69.58
1480;BME280;732;51.698;4.886;2023-03-31T09:41:50;99437.28;;;9.73;70.36
1480;BME280;732;51.698;4.886;2023-03-31T09:44:26;99435.91;;;10.02;70.06
1480;BME280;732;51.698;4.886;2023-03-31T09:46:57;99434.81;;;10.17;68.59
1480;BME280;732;51.698;4.886;2023-03-31T09:49:34;99409.47;;;10.13;67.42
1480;BME280;732;51.698;4.886;2023-03-31T09:52:11;99427.53;;;10.31;67.65
1480;BME280;732;51.698;4.886;2023-03-31T09:54:47;99419.56;;;10.17;68.24
1480;BME280;732;51.698;4.886;2023-03-31T09:57:25;99432.97;;;10.49;66.57
1480;BME280;732;51.698;4.886;2023-03-31T10:00:04;99413.28;;;10.30;67.25
1480;BME280;732;51.698;4.886;2023-03-31T10:02:43;99413.38;;;10.17;66.24
1480;BME280;732;51.698;4.886;2023-03-31T10:05:29;99408.66;;;10.12;66.99
1480;BME280;732;51.698;4.886;2023-03-31T10:08:25;99397.38;;;10.03;67.40
1480;BME280;732;51.698;4.886;2023-03-31T10:10:57;99423.97;;;10.37;67.71
1480;BME280;732;51.698;4.886;2023-03-31T10:13:45;99427.91;;;10.34;66.06
1480;BME280;732;51.698;4.886;2023-03-31T10:16:24;99383.25;;;9.89;65.95
1480;BME280;732;51.698;4.886;2023-03-31T10:19:11;99365.69;;;9.55;67.65
1480;BME280;732;51.698;4.886;2023-03-31T10:21:45;99430.84;;;9.87;68.29
1480;BME280;732;51.698;4.886;2023-03-31T10:24:18;99419.00;;;9.56;68.42
1480;BME280;732;51.698;4.886;2023-03-31T10:26:48;99423.31;;;9.64;68.92
1480;BME280;732;51.698;4.886;2023-03-31T10:29:22;99367.84;;;9.13;69.24
1480;BME280;732;51.698;4.886;2023-03-31T10:31:53;99409.16;;;9.37;70.23
1480;BME280;732;51.698;4.886;2023-03-31T10:34:24;99415.16;;;9.39;69.63
1480;BME280;732;51.698;4.886;2023-03-31T10:36:52;99409.09;;;9.57;70.46
1480;BME280;732;51.698;4.886;2023-03-31T10:39:28;99407.81;;;9.80;69.31
1480;BME280;732;51.698;4.886;2023-03-31T10:41:58;99320.50;;;9.13;69.00
1480;BME280;732;51.698;4.886;2023-03-31T10:44:33;99376.88;;;9.25;71.39
1480;BME280;732;51.698;4.886;2023-03-31T10:47:08;99332.69;;;9.02;70.88
1480;BME280;732;51.698;4.886;2023-03-31T10:49:49;99370.50;;;9.06;72.01
1480;BME280;732;51.698;4.886;2023-03-31T10:52:21;99375.94;;;8.59;73.47
1480;BME280;732;51.698;4.886;2023-03-31T10:54:53;99394.66;;;8.66;74.68
1480;BME280;732;51.698;4.886;2023-03-31T10:57:33;99397.72;;;8.69;75.69
1480;BME280;732;51.698;4.886;2023-03-31T11:00:16;99366.69;;;8.48;76.10
1480;BME280;732;51.698;4.886;2023-03-31T11:05:55;99330.06;;;8.02;76.91
1480;BME280;732;51.698;4.886;2023-03-31T11:08:41;99373.47;;;8.24;76.95
1480;BME280;732;51.698;4.886;2023-03-31T11:11:33;99361.53;;;8.26;77.14
1480;BME280;732;51.698;4.886;2023-03-31T11:14:14;99383.97;;;8.59;75.89
1480;BME280;732;51.698;4.886;2023-03-31T11:16:54;99275.38;;;7.91;76.69
1480;BME280;732;51.698;4.886;2023-03-31T11:19:33;99349.56;;;8.89;76.08
1480;BME280;732;51.698;4.886;2023-03-31T11:22:13;99372.72;;;9.29;73.77
1480;BME280;732;51.698;4.886;2023-03-31T11:25:09;99356.09;;;9.20;73.33
1480;BME280;732;51.698;4.886;2023-03-31T11:27:57;99381.38;;;9.38;74.44
1480;BME280;732;51.698;4.886;2023-03-31T11:30:31;99363.66;;;9.30;73.48
1480;BME280;732;51.698;4.886;2023-03-31T11:33:28;99320.66;;;9.25;74.50
1480;BME280;732;51.698;4.886;2023-03-31T11:36:13;99384.91;;;9.38;73.91
1480;BME280;732;51.698;4.886;2023-03-31T11:39:00;99381.00;;;9.21;75.26
1480;BME280;732;51.698;4.886;2023-03-31T11:41:34;99392.34;;;9.03;76.35
1480;BME280;732;51.698;4.886;2023-03-31T11:44:08;99376.75;;;8.86;77.77
1480;BME280;732;51.698;4.886;2023-03-31T11:46:42;99386.00;;;8.70;76.59
1480;BME280;732;51.698;4.886;2023-03-31T11:49:18;99375.53;;;8.55;77.82
1480;BME280;732;51.698;4.886;2023-03-31T11:51:52;99359.06;;;8.52;78.93
1480;BME280;732;51.698;4.886;2023-03-31T11:54:29;99346.72;;;8.37;79.30
1480;BME280;732;51.698;4.886;2023-03-31T11:57:03;99336.47;;;8.27;79.84
1480;BME280;732;51.698;4.886;2023-03-31T11:59:35;99382.13;;;8.66;79.69
1480;BME280;732;51.698;4.886;2023-03-31T12:02:14;99384.94;;;8.98;79.02
1480;BME280;732;51.698;4.886;2023-03-31T12:04:47;99379.00;;;8.83;78.19
1480;BME280;732;51.698;4.886;2023-03-31T12:07:23;99326.16;;;8.71;78.18
1480;BME280;732;51.698;4.886;2023-03-31T12:10:04;99359.81;;;9.13;78.03
1480;BME280;732;51.698;4.886;2023-03-31T12:12:42;99333.59;;;9.35;79.82
1480;BME280;732;51.698;4.886;2023-03-31T12:15:19;99335.38;;;9.61;77.02
1480;BME280;732;51.698;4.886;2023-03-31T12:17:56;99309.41;;;9.62;75.80
1480;BME280;732;51.698;4.886;2023-03-31T12:20:32;99275.22;;;9.57;75.35
1480;BME280;732;51.698;4.886;2023-03-31T12:23:08;99335.31;;;9.74;73.16
1480;BME280;732;51.698;4.886;2023-03-31T12:25:49;99335.19;;;9.56;75.28
1480;BME280;732;51.698;4.886;2023-03-31T12:28:20;99333.44;;;9.23;76.00
1480;BME280;732;51.698;4.886;2023-03-31T12:30:50;99302.19;;;9.10;76.77
1480;BME280;732;51.698;4.886;2023-03-31T12:33:24;99332.56;;;9.42;77.10
1480;BME280;732;51.698;4.886;2023-03-31T12:36:11;99304.03;;;9.62;76.91
1480;BME280;732;51.698;4.886;2023-03-31T12:39:00;99325.84;;;9.20;76.02
1480;BME280;732;51.698;4.886;2023-03-31T12:41:39;99304.09;;;8.96;77.29
1480;BME280;732;51.698;4.886;2023-03-31T12:44:33;99314.59;;;8.84;77.31
1480;BME280;732;51.698;4.886;2023-03-31T12:47:25;99295.88;;;8.84;76.99
1480;BME280;732;51.698;4.886;2023-03-31T12:50:25;99294.09;;;8.58;76.65
1480;BME280;732;51.698;4.886;2023-03-31T12:53:04;99256.09;;;8.42;77.10
1480;BME280;732;51.698;4.886;2023-03-31T12:55:39;99280.09;;;8.69;77.75
1480;BME280;732;51.698;4.886;2023-03-31T12:58:43;99286.88;;;8.72;76.96
1480;BME280;732;51.698;4.886;2023-03-31T13:01:15;99284.66;;;8.49;77.89
1480;BME280;732;51.698;4.886;2023-03-31T13:41:14;99265.50;;;8.52;79.09
1480;BME280;732;51.698;4.886;2023-03-31T13:44:24;99274.78;;;8.36;79.02
1480;BME280;732;51.698;4.886;2023-03-31T13:47:36;99276.03;;;8.00;79.22
1480;BME280;732;51.698;4.886;2023-03-31T13:50:49;99240.41;;;7.45;81.04
1480;BME280;732;51.698;4.886;2023-03-31T13:53:34;99283.34;;;7.64;81.73
1480;BME280;732;51.698;4.886;2023-03-31T13:56:25;99250.28;;;7.52;82.07
1480;BME280;732;51.698;4.886;2023-03-31T13:59:17;99259.13;;;7.65;81.37
1480;BME280;732;51.698;4.886;2023-03-31T14:02:10;99259.34;;;7.91;81.42
1480;BME280;732;51.698;4.886;2023-03-31T14:05:21;99252.00;;;8.00;80.04
1480;BME280;732;51.698;4.886;2023-03-31T14:07:55;99236.56;;;8.08;80.73
1480;BME280;732;51.698;4.886;2023-03-31T14:10:29;99252.63;;;8.02;79.31
1480;BME280;732;51.698;4.886;2023-03-31T14:13:09;99243.09;;;7.72;80.17
1480;BME280;732;51.698;4.886;2023-03-31T14:15:42;99257.94;;;8.08;80.89
1480;BME280;732;51.698;4.886;2023-03-31T14:18:15;99221.34;;;7.82;79.74
1480;BME280;732;51.698;4.886;2023-03-31T14:20:54;99271.53;;;8.00;80.25
1480;BME280;732;51.698;4.886;2023-03-31T14:23:36;99217.03;;;7.88;80.04
1480;BME280;732;51.698;4.886;2023-03-31T14:26:16;99268.44;;;7.96;81.14
1480;BME280;732;51.698;4.886;2023-03-31T14:29:06;99253.41;;;8.02;80.06
1480;BME280;732;51.698;4.886;2023-03-31T14:31:46;99245.19;;;8.17;80.14
1480;BME280;732;51.698;4.886;2023-03-31T14:34:44;99201.88;;;8.02;79.47
1480;BME280;732;51.698;4.886;2023-03-31T14:37:18;99202.69;;;8.02;78.35
1480;BME280;732;51.698;4.886;2023-03-31T14:39:50;99206.56;;;8.20;78.54
1480;BME280;732;51.698;4.886;2023-03-31T14:42:24;99249.91;;;8.28;78.67
1480;BME280;732;51.698;4.886;2023-03-31T14:45:01;99215.22;;;8.08;79.60
1480;BME280;732;51.698;4.886;2023-03-31T14:47:30;99208.19;;;7.87;78.73
1480;BME280;732;51.698;4.886;2023-03-31T14:50:00;99216.81;;;7.76;79.69
1480;BME280;732;51.698;4.886;2023-03-31T14:52:32;99215.41;;;7.87;80.17
1480;BME280;732;51.698;4.886;2023-03-31T14:55:03;99190.97;;;7.76;79.93
1480;BME280;732;51.698;4.886;2023-03-31T14:57:33;99243.53;;;7.89;79.22
1480;BME280;732;51.698;4.886;2023-03-31T15:00:07;99237.56;;;7.67;80.39
1480;BME280;732;51.698;4.886;2023-03-31T15:02:41;99221.72;;;7.45;80.41
1480;BME280;732;51.698;4.886;2023-03-31T15:05:24;99205.25;;;7.28;80.90
1480;BME280;732;51.698;4.886;2023-03-31T15:07:57;99229.91;;;7.44;80.35